Time;durP1;ratioP1;P1;durP2;ratioP2;P2;SDS_P1;SDS_P2;PMS_P1;PMS_P2;Temp;Humidity;BMP_temperature;BMP_pressure;BME280_temperature;BME280_humidity;BME280_pressure;Samples;Min_cycle;Max_cycle;Signal;HPM_P1;HPM_P2
2023/04/28 00:00:13;;;;;;;;;42.00;36.00;;;;;-146.39;100.00;62182.44;6279496;20;2879879;-61
2023/04/28 00:02:44;;;;;;;;;40.00;32.33;;;;;-146.39;100.00;62182.44;6312996;20;2869411;-61
2023/04/28 00:05:14;;;;;;;;;44.00;35.33;;;;;-146.39;100.00;62182.44;6311088;20;2866054;-61
2023/04/28 00:07:44;;;;;;;;;43.67;36.33;;;;;-146.39;100.00;62182.44;6309683;20;2849337;-61
2023/04/28 00:10:14;;;;;;;;;37.00;35.33;;;;;-146.39;100.00;62182.44;6312041;20;2877447;-60
2023/04/28 00:12:44;;;;;;;;;50.00;36.00;;;;;-146.39;100.00;62182.44;6309537;20;3629435;-61
2023/04/28 00:15:12;;;;;;;;;38.00;36.00;;;;;-146.39;100.00;62182.44;6308821;20;2861806;-61
2023/04/28 00:17:42;;;;;;;;;31.00;28.50;;;;;-146.39;100.00;62182.44;6278961;20;2854478;-61
2023/04/28 00:20:11;;;;;;;;;37.00;27.00;;;;;-146.39;100.00;62182.44;6281692;20;2861968;-61
2023/04/28 00:22:40;;;;;;;;;38.00;29.00;;;;;-146.39;100.00;62182.44;6281602;20;2865936;-61
2023/04/28 00:25:09;;;;;;;;;33.00;31.00;;;;;-146.39;100.00;62182.44;6278767;20;2863860;-61
2023/04/28 00:27:41;;;;;;;;;34.00;32.00;;;;;-146.39;100.00;62182.44;6278814;20;2856602;-61
2023/04/28 00:30:10;;;;;;;;;28.00;28.00;;;;;-146.39;100.00;62182.44;6278566;20;2853408;-61
2023/04/28 00:32:39;;;;;;;;;34.50;31.00;;;;;-146.39;100.00;62182.44;6279198;20;2860680;-61
2023/04/28 00:35:09;;;;;;;;;36.50;29.00;;;;;-146.39;100.00;62182.44;6279176;20;2859683;-61
2023/04/28 00:37:39;;;;;;;;;39.50;32.50;;;;;-146.39;100.00;62182.44;6277713;20;2875285;-61
2023/04/28 00:40:09;;;;;;;;;36.00;29.33;;;;;-146.39;100.00;62182.44;6276274;20;2864868;-61
2023/04/28 00:42:38;;;;;;;;;39.50;36.00;;;;;-146.39;100.00;62182.44;6312706;20;2861857;-61
2023/04/28 00:45:07;;;;;;;;;40.00;33.00;;;;;-146.39;100.00;62182.44;6277198;20;2500277;-61
2023/04/28 00:47:37;;;;;;;;;31.00;27.00;;;;;-146.39;100.00;62182.44;6306724;20;2500265;-60
2023/04/28 00:50:07;;;;;;;;;34.50;32.50;;;;;-146.39;100.00;62182.44;6281160;20;2860867;-61
2023/04/28 00:52:37;;;;;;;;;32.50;28.00;;;;;-146.39;100.00;62182.44;6280031;20;2856496;-61
2023/04/28 00:55:08;;;;;;;;;38.00;29.50;;;;;-146.39;100.00;62182.44;6275246;20;2500264;-61
2023/04/28 00:57:37;;;;;;;;;34.50;27.00;;;;;-146.39;100.00;62182.44;6279256;20;2849355;-61
2023/04/28 01:00:08;;;;;;;;;33.00;27.33;;;;;-146.39;100.00;62182.44;6280898;20;3579453;-61
2023/04/28 01:02:36;;;;;;;;;34.00;33.00;;;;;-146.39;100.00;62182.44;6274369;20;2500293;-61
2023/04/28 01:05:05;;;;;;;;;32.50;28.00;;;;;-146.39;100.00;62182.44;6277076;20;2854480;-61
2023/04/28 01:07:33;;;;;;;;;24.00;19.00;;;;;-146.39;100.00;62182.44;6278550;20;2828546;-61
2023/04/28 01:10:02;;;;;;;;;32.00;19.67;;;;;-146.39;100.00;62182.44;6275756;20;3591075;-61
2023/04/28 01:12:32;;;;;;;;;41.00;29.00;;;;;-146.39;100.00;62182.44;6280092;20;2870138;-60
2023/04/28 01:15:00;;;;;;;;;31.50;26.50;;;;;-146.39;100.00;62182.44;6274115;20;2500315;-61
2023/04/28 01:17:28;;;;;;;;;34.00;27.00;;;;;-146.39;100.00;62182.44;6271135;20;2500343;-60
2023/04/28 01:19:57;;;;;;;;;37.00;33.50;;;;;-146.39;100.00;62182.44;6276124;20;2856593;-61
2023/04/28 01:22:25;;;;;;;;;26.50;25.00;;;;;-146.39;100.00;62182.44;6275810;20;2500327;-61
2023/04/28 01:24:53;;;;;;;;;31.50;24.00;;;;;-146.39;100.00;62182.44;6275295;20;2500293;-61
2023/04/28 01:27:23;;;;;;;;;22.33;21.67;;;;;-146.39;100.00;62182.44;6280007;20;3581553;-61
2023/04/28 01:29:51;;;;;;;;;36.50;26.00;;;;;-146.39;100.00;62182.44;6279229;20;2857609;-61
2023/04/28 01:32:19;;;;;;;;;31.00;28.00;;;;;-146.39;100.00;62182.44;6271503;20;2500240;-61
2023/04/28 01:34:48;;;;;;;;;29.33;22.33;;;;;-146.39;100.00;62182.44;6276806;20;3595050;-61
2023/04/28 01:37:15;;;;;;;;;31.00;27.50;;;;;-146.39;100.00;62182.44;6278667;20;2500406;-61
2023/04/28 01:39:43;;;;;;;;;36.00;30.50;;;;;-146.39;100.00;62182.44;6275493;20;2500331;-61
2023/04/28 01:42:12;;;;;;;;;32.00;28.00;;;;;-146.39;100.00;62182.44;6279330;20;3576610;-61
2023/04/28 01:44:41;;;;;;;;;29.67;26.33;;;;;-146.39;100.00;62182.44;6280375;20;3581510;-60
2023/04/28 01:47:10;;;;;;;;;22.67;20.00;;;;;-146.39;100.00;62182.44;6285149;20;3553405;-60
2023/04/28 01:49:38;;;;;;;;;29.50;25.00;;;;;-146.39;100.00;62182.44;6312663;20;2500285;-61
2023/04/28 01:52:06;;;;;;;;;35.00;29.00;;;;;-146.39;100.00;62182.44;6279988;20;2500905;-61
2023/04/28 01:54:34;;;;;;;;;26.00;26.00;;;;;-146.39;100.00;62182.44;6282760;20;3572246;-61
2023/04/28 01:57:03;;;;;;;;;32.50;29.00;;;;;-146.39;100.00;62182.44;6281131;20;2848202;-61
2023/04/28 01:59:32;;;;;;;;;37.50;29.00;;;;;-146.39;100.00;62182.44;6283513;20;2869143;-61
2023/04/28 02:02:01;;;;;;;;;28.00;27.00;;;;;-146.39;100.00;62182.44;6279663;20;2847366;-60
2023/04/28 02:04:29;;;;;;;;;28.00;26.00;;;;;-146.39;100.00;62182.44;6286091;20;2500484;-61
2023/04/28 02:06:57;;;;;;;;;33.50;29.00;;;;;-146.39;100.00;62182.44;6278936;20;2500278;-60
2023/04/28 02:09:27;;;;;;;;;42.33;32.67;;;;;-146.39;100.00;62182.44;6284296;20;2882644;-61
2023/04/28 02:11:56;;;;;;;;;32.50;31.00;;;;;-146.39;100.00;62182.44;6310058;20;2849279;-61
2023/04/28 02:14:25;;;;;;;;;32.50;29.00;;;;;-146.39;100.00;62182.44;6284329;20;2856507;-61
2023/04/28 02:16:53;;;;;;;;;33.00;28.00;;;;;-146.39;100.00;62182.44;6282399;20;2500538;-61
2023/04/28 02:19:21;;;;;;;;;30.00;28.00;;;;;-146.39;100.00;62182.44;6280679;20;2502615;-62
2023/04/28 02:21:51;;;;;;;;;51.33;42.33;;;;;-146.39;100.00;62182.44;6278553;20;2873148;-61
2023/04/28 02:24:20;;;;;;;;;63.00;49.00;;;;;-146.39;100.00;62182.44;6313314;20;2855646;-61
2023/04/28 02:26:49;;;;;;;;;77.33;58.00;;;;;-146.39;100.00;62182.44;6278570;20;2895172;-61
2023/04/28 02:29:18;;;;;;;;;70.50;52.50;;;;;-146.39;100.00;62182.44;6313458;20;2878402;-60
2023/04/28 02:31:46;;;;;;;;;62.00;48.50;;;;;-146.39;100.00;62182.44;6277755;20;2508623;-60
2023/04/28 02:34:14;;;;;;;;;63.00;49.50;;;;;-146.39;100.00;62182.44;6282456;20;2494094;-60
2023/04/28 02:36:44;;;;;;;;;58.00;47.00;;;;;-146.39;100.00;62182.44;6279676;20;2847162;-60
2023/04/28 02:39:13;;;;;;;;;57.00;42.00;;;;;-146.39;100.00;62182.44;6282759;20;2876383;-60
2023/04/28 02:41:41;;;;;;;;;48.50;36.50;;;;;-146.39;100.00;62182.44;6283094;20;2870104;-60
2023/04/28 02:44:10;;;;;;;;;34.00;30.50;;;;;-146.39;100.00;62182.44;6279383;20;2857526;-59
2023/04/28 02:46:39;;;;;;;;;40.50;35.00;;;;;-146.39;100.00;62182.44;6280362;20;2858695;-60
2023/04/28 02:49:08;;;;;;;;;47.50;39.00;;;;;-146.39;100.00;62182.44;6283107;20;2855677;-60
2023/04/28 02:51:36;;;;;;;;;36.00;33.00;;;;;-146.39;100.00;62182.44;6278021;20;2500835;-60
2023/04/28 02:54:06;;;;;;;;;54.33;43.00;;;;;-146.39;100.00;62182.44;6277921;20;2879530;-60
2023/04/28 02:56:36;;;;;;;;;33.50;32.00;;;;;-146.39;100.00;62182.44;6306816;20;2500257;-60
2023/04/28 02:59:03;;;;;;;;;30.00;30.00;;;;;-146.39;100.00;62182.44;6280068;20;2501034;-60
2023/04/28 03:01:32;;;;;;;;;39.50;30.00;;;;;-146.39;100.00;62182.44;6281807;20;2870101;-60
2023/04/28 03:04:00;;;;;;;;;23.50;12.00;;;;;-146.39;100.00;62182.44;6281764;20;2813950;-61
2023/04/28 03:06:30;;;;;;;;;40.00;35.00;;;;;-146.39;100.00;62182.44;6281113;20;2860635;-60
2023/04/28 03:08:58;;;;;;;;;35.00;31.00;;;;;-146.39;100.00;62182.44;6276890;20;2504421;-60
2023/04/28 03:11:27;;;;;;;;;37.50;33.50;;;;;-146.39;100.00;62182.44;6283862;20;2855482;-60
2023/04/28 03:13:56;;;;;;;;;39.00;34.50;;;;;-146.39;100.00;62182.44;6280849;20;2861726;-60
2023/04/28 03:16:24;;;;;;;;;68.50;52.00;;;;;-146.39;100.00;62182.44;6282512;20;2865890;-59
2023/04/28 03:18:53;;;;;;;;;42.50;39.00;;;;;-146.39;100.00;62182.44;6282115;20;2863359;-60
2023/04/28 03:21:25;;;;;;;;;45.33;37.67;;;;;-146.39;100.00;62182.44;6279536;20;2873361;-59
2023/04/28 03:23:54;;;;;;;;;43.50;38.00;;;;;-146.39;100.00;62182.44;6314101;20;2873210;-59
2023/04/28 03:26:23;;;;;;;;;50.67;39.67;;;;;-146.39;100.00;62182.44;6279913;20;2883739;-60
2023/04/28 03:28:53;;;;;;;;;41.50;35.50;;;;;-146.39;100.00;62182.44;6312694;20;2856562;-60
2023/04/28 03:31:21;;;;;;;;;48.50;37.50;;;;;-146.39;100.00;62182.44;6282575;20;2870157;-60
2023/04/28 03:33:50;;;;;;;;;52.50;41.50;;;;;-146.39;100.00;62182.44;6282059;20;2869012;-60
2023/04/28 03:36:20;;;;;;;;;52.00;37.00;;;;;-146.39;100.00;62182.44;6277293;20;2868040;-59
2023/04/28 03:38:49;;;;;;;;;61.00;49.50;;;;;-146.39;100.00;62182.44;6312496;20;2856996;-59
2023/04/28 03:41:17;;;;;;;;;56.00;46.00;;;;;-146.39;100.00;62182.44;6279205;20;2508610;-60
2023/04/28 03:43:46;;;;;;;;;69.00;54.50;;;;;-146.39;100.00;62182.44;6282617;20;2875300;-60
2023/04/28 03:46:15;;;;;;;;;74.00;57.33;;;;;-146.39;100.00;62182.44;6278420;20;2876353;-60
2023/04/28 03:48:45;;;;;;;;;42.50;38.50;;;;;-146.39;100.00;62182.44;6310459;20;2856510;-60
2023/04/28 03:51:14;;;;;;;;;42.00;34.00;;;;;-146.39;100.00;62182.44;6282167;20;2880507;-60
2023/04/28 03:53:42;;;;;;;;;32.50;29.50;;;;;-146.39;100.00;62182.44;6277479;20;2842009;-60
2023/04/28 03:56:12;;;;;;;;;39.50;35.00;;;;;-146.39;100.00;62182.44;6280422;20;2864968;-59
2023/04/28 03:58:41;;;;;;;;;33.50;32.50;;;;;-146.39;100.00;62182.44;6282080;20;2858598;-60
2023/04/28 04:01:10;;;;;;;;;64.50;52.50;;;;;-146.39;100.00;62182.44;6282586;20;2855454;-60
2023/04/28 04:03:39;;;;;;;;;64.50;49.50;;;;;-146.39;100.00;62182.44;6280159;20;2880484;-60
2023/04/28 04:06:10;;;;;;;;;24.67;19.33;;;;;-146.39;100.00;62182.44;6303372;20;2842954;-60
2023/04/28 04:08:40;;;;;;;;;38.50;34.00;;;;;-146.39;100.00;62182.44;6311395;20;2867985;-60
2023/04/28 04:11:09;;;;;;;;;44.00;37.00;;;;;-146.39;100.00;62182.44;6280462;20;2863900;-60
2023/04/28 04:13:39;;;;;;;;;42.00;36.00;;;;;-146.39;100.00;62182.44;6275668;20;2871271;-60
2023/04/28 04:16:08;;;;;;;;;50.67;40.33;;;;;-146.39;100.00;62182.44;6310719;20;2871145;-60
2023/04/28 04:18:36;;;;;;;;;45.50;38.00;;;;;-146.39;100.00;62182.44;6309513;20;2472245;-60
2023/04/28 04:21:05;;;;;;;;;46.50;40.00;;;;;-146.39;100.00;62182.44;6280220;20;2859030;-61
2023/04/28 04:23:34;;;;;;;;;39.33;35.33;;;;;-146.39;100.00;62182.44;6279970;20;3574320;-60
2023/04/28 04:26:03;;;;;;;;;47.00;39.00;;;;;-146.39;100.00;62182.44;6278108;20;2847413;-60
2023/04/28 04:28:33;;;;;;;;;50.33;39.33;;;;;-146.39;100.00;62182.44;6280715;20;2875377;-61
2023/04/28 04:31:02;;;;;;;;;40.50;35.00;;;;;-146.39;100.00;62182.44;6313671;20;2871115;-61
2023/04/28 04:33:33;;;;;;;;;42.00;38.33;;;;;-146.39;100.00;62182.44;6277441;20;2869108;-61
2023/04/28 04:36:03;;;;;;;;;35.50;29.00;;;;;-146.39;100.00;62182.44;6308583;20;2848284;-61
2023/04/28 04:38:33;;;;;;;;;42.33;36.00;;;;;-146.39;100.00;62182.44;6277296;20;2862941;-61
2023/04/28 04:41:03;;;;;;;;;37.67;32.00;;;;;-146.39;100.00;62182.44;6311310;20;2852580;-61
2023/04/28 04:43:32;;;;;;;;;41.33;36.33;;;;;-146.39;100.00;62182.44;6312388;20;2869133;-60
2023/04/28 04:46:02;;;;;;;;;46.00;36.33;;;;;-146.39;100.00;62182.44;6309600;20;2875772;-62
2023/04/28 04:48:31;;;;;;;;;47.00;39.50;;;;;-146.39;100.00;62182.44;6312279;20;2834656;-61
2023/04/28 04:51:01;;;;;;;;;46.00;36.33;;;;;-146.39;100.00;62182.44;6275393;20;2877371;-61
2023/04/28 04:53:31;;;;;;;;;48.33;36.67;;;;;-146.39;100.00;62182.44;6306593;20;2881665;-62
2023/04/28 04:56:00;;;;;;;;;39.00;36.50;;;;;-146.39;100.00;62182.44;6309974;20;2861733;-62
2023/04/28 04:58:30;;;;;;;;;41.33;36.00;;;;;-146.39;100.00;62182.44;6277856;20;3617971;-62
2023/04/28 05:00:59;;;;;;;;;41.00;34.00;;;;;-146.39;100.00;62182.44;6309332;20;3606674;-61
2023/04/28 05:03:29;;;;;;;;;40.00;35.00;;;;;-146.39;100.00;62182.44;6278569;20;2869062;-61
2023/04/28 05:05:58;;;;;;;;;44.00;36.33;;;;;-146.39;100.00;62182.44;6308171;20;2873286;-61
2023/04/28 05:08:28;;;;;;;;;45.67;37.33;;;;;-146.39;100.00;62182.44;6309382;20;2873687;-61
2023/04/28 05:10:58;;;;;;;;;47.67;37.33;;;;;-146.39;100.00;62182.44;6309774;20;2870155;-61
2023/04/28 05:13:27;;;;;;;;;73.33;57.33;;;;;-146.39;100.00;62182.44;6310438;20;3625271;-61
2023/04/28 05:15:57;;;;;;;;;49.67;39.00;;;;;-146.39;100.00;62182.44;6305567;20;2879476;-62
2023/04/28 05:18:27;;;;;;;;;48.33;38.33;;;;;-146.39;100.00;62182.44;6311188;20;2874353;-62
2023/04/28 05:20:56;;;;;;;;;39.00;34.50;;;;;-146.39;100.00;62182.44;6309347;20;2860713;-62
2023/04/28 05:23:25;;;;;;;;;39.00;34.67;;;;;-146.39;100.00;62182.44;6285558;20;3615924;-62
2023/04/28 05:25:54;;;;;;;;;42.00;37.33;;;;;-146.39;100.00;62182.44;6316825;20;3597692;-62
2023/04/28 05:28:24;;;;;;;;;37.00;34.67;;;;;-146.39;100.00;62182.44;6284245;20;2853531;-61
2023/04/28 05:30:53;;;;;;;;;32.33;30.33;;;;;-146.39;100.00;62182.44;6319362;20;3598297;-61
2023/04/28 05:33:22;;;;;;;;;55.50;43.50;;;;;-146.39;100.00;62182.44;6281661;20;2860741;-62
2023/04/28 05:35:52;;;;;;;;;40.33;32.33;;;;;-146.39;100.00;62182.44;6282497;20;2862830;-61
2023/04/28 05:38:21;;;;;;;;;34.33;30.33;;;;;-146.39;100.00;62182.44;6317286;20;3590290;-62
2023/04/28 05:40:51;;;;;;;;;30.00;25.67;;;;;-146.39;100.00;62182.44;6282785;20;2860727;-62
2023/04/28 05:43:20;;;;;;;;;29.33;26.67;;;;;-146.39;100.00;62182.44;6317423;20;3593380;-62
2023/04/28 05:45:49;;;;;;;;;31.00;30.50;;;;;-146.39;100.00;62182.44;6282970;20;2842968;-61
2023/04/28 05:48:19;;;;;;;;;35.33;32.00;;;;;-146.39;100.00;62182.44;6287025;20;3594507;-62
2023/04/28 05:50:48;;;;;;;;;34.00;31.50;;;;;-146.39;100.00;62182.44;6282391;20;2841935;-62
2023/04/28 05:53:16;;;;;;;;;37.00;31.00;;;;;-146.39;100.00;62182.44;6283998;20;2846124;-62
2023/04/28 05:55:47;;;;;;;;;31.33;29.67;;;;;-146.39;100.00;62182.44;6280645;20;2852398;-62
2023/04/28 05:58:15;;;;;;;;;30.33;27.33;;;;;-146.39;100.00;62182.44;6317220;20;3598183;-62
2023/04/28 06:00:44;;;;;;;;;32.50;31.00;;;;;-146.39;100.00;62182.44;6282594;20;2838846;-62
2023/04/28 06:03:17;;;;;;;;;33.00;29.00;;;;;-146.39;100.00;62182.44;6284650;20;2860780;-62
2023/04/28 06:05:47;;;;;;;;;34.33;33.00;;;;;-146.39;100.00;62182.44;6319154;20;3583731;-62
2023/04/28 06:08:18;;;;;;;;;33.00;31.33;;;;;-146.39;100.00;62182.44;6286429;20;2851912;-61
2023/04/28 06:10:47;;;;;;;;;37.33;31.33;;;;;-146.39;100.00;62182.44;6316607;20;3595204;-61
2023/04/28 06:13:17;;;;;;;;;34.00;32.67;;;;;-146.39;100.00;62182.44;6286465;20;2848272;-62
2023/04/28 06:15:45;;;;;;;;;30.67;29.00;;;;;-146.39;100.00;62182.44;6318974;20;3591960;-60
2023/04/28 06:18:17;;;;;;;;;39.50;33.50;;;;;-146.39;100.00;62182.44;6284396;20;2850308;-61
2023/04/28 06:20:46;;;;;;;;;34.50;29.00;;;;;-146.39;100.00;62182.44;6286242;20;2860735;-61
2023/04/28 06:23:15;;;;;;;;;33.67;29.33;;;;;-146.39;100.00;62182.44;6289559;20;3601334;-61
2023/04/28 06:25:44;;;;;;;;;35.67;27.67;;;;;-146.39;100.00;62182.44;6284838;20;3627374;-61
2023/04/28 06:28:13;;;;;;;;;21.00;20.67;;;;;-146.39;100.00;62182.44;6320223;20;3567962;-61
2023/04/28 06:30:42;;;;;;;;;26.50;25.00;;;;;-146.39;100.00;62182.44;6313383;20;2844051;-61
2023/04/28 06:33:12;;;;;;;;;24.00;21.33;;;;;-146.39;100.00;62182.44;6283978;20;2848214;-61
2023/04/28 06:35:41;;;;;;;;;26.50;23.50;;;;;-146.39;100.00;62182.44;6315026;20;2856498;-61
2023/04/28 06:38:09;;;;;;;;;23.33;21.33;;;;;-146.39;100.00;62182.44;6289543;20;3560718;-61
2023/04/28 06:40:39;;;;;;;;;26.67;24.33;;;;;-146.39;100.00;62182.44;6316932;20;2850331;-61
2023/04/28 06:43:08;;;;;;;;;25.00;21.00;;;;;-146.39;100.00;62182.44;6320419;20;3581497;-62
2023/04/28 06:45:37;;;;;;;;;19.00;16.50;;;;;-146.39;100.00;62182.44;6282220;20;2825293;-61
2023/04/28 06:48:07;;;;;;;;;21.00;20.00;;;;;-146.39;100.00;62182.44;6287333;20;2828442;-61
2023/04/28 06:50:37;;;;;;;;;66.00;36.67;;;;;-146.39;100.00;62182.44;6284662;20;1931667;-62
2023/04/28 06:53:06;;;;;;;;;23.00;20.00;;;;;-146.39;100.00;62182.44;6317948;20;3571115;-62
2023/04/28 06:55:35;;;;;;;;;20.00;18.00;;;;;-146.39;100.00;62182.44;6280244;20;2834820;-53
2023/04/28 06:58:07;;;;;;;;;22.00;20.67;;;;;-146.39;100.00;62182.44;6284449;20;3566915;-63
2023/04/28 07:00:39;;;;;;;;;14.67;13.33;;;;;-146.39;100.00;62182.44;6274319;20;3536785;-63
2023/04/28 07:03:11;;;;;;;;;22.67;21.33;;;;;-146.39;100.00;62182.44;6288361;20;3571103;-63
2023/04/28 07:05:43;;;;;;;;;25.67;20.00;;;;;-146.39;100.00;62182.44;6282363;20;3580480;-62
2023/04/28 07:08:16;;;;;;;;;18.67;16.67;;;;;-146.39;100.00;62182.44;6285868;20;2500278;-62
2023/04/28 07:10:47;;;;;;;;;13.00;13.00;;;;;-146.39;100.00;62182.44;6316047;20;2487856;-63
2023/04/28 07:13:18;;;;;;;;;19.00;19.00;;;;;-146.39;100.00;62182.44;6285125;20;2483671;-61
2023/04/28 07:15:50;;;;;;;;;20.00;20.00;;;;;-146.39;100.00;62182.44;6286916;20;3576446;-61
2023/04/28 07:18:21;;;;;;;;;17.33;17.33;;;;;-146.39;100.00;62182.44;6286438;20;3570066;-62
2023/04/28 07:20:54;;;;;;;;;23.67;20.33;;;;;-146.39;100.00;62182.44;6280402;20;3583700;-62
2023/04/28 07:23:26;;;;;;;;;20.33;18.00;;;;;-146.39;100.00;62182.44;6289172;20;3581503;-62
2023/04/28 07:25:57;;;;;;;;;21.33;21.33;;;;;-146.39;100.00;62182.44;6283303;20;3584702;-62
2023/04/28 07:28:30;;;;;;;;;28.67;24.67;;;;;-146.39;100.00;62182.44;6287549;20;3601345;-62
2023/04/28 07:31:02;;;;;;;;;24.00;22.67;;;;;-146.39;100.00;62182.44;6288009;20;3595110;-62
2023/04/28 07:33:34;;;;;;;;;27.33;22.33;;;;;-146.39;100.00;62182.44;6283014;20;3600357;-61
2023/04/28 07:36:06;;;;;;;;;26.67;25.00;;;;;-146.39;100.00;62182.44;6317283;20;3596120;-60
2023/04/28 07:38:39;;;;;;;;;25.00;21.67;;;;;-146.39;100.00;62182.44;6283209;20;3585110;-60
2023/04/28 07:41:11;;;;;;;;;25.00;22.33;;;;;-146.39;100.00;62182.44;6282371;20;2843139;-58
2023/04/28 07:43:44;;;;;;;;;19.67;18.33;;;;;-146.39;100.00;62182.44;6316437;20;3573151;-61
2023/04/28 07:46:15;;;;;;;;;12.50;7.50;;;;;-146.39;100.00;62182.44;6282203;20;2755494;-60
2023/04/28 07:48:48;;;;;;;;;25.33;23.00;;;;;-146.39;100.00;62182.44;6287255;20;3589980;-61
2023/04/28 07:51:20;;;;;;;;;23.00;20.33;;;;;-146.39;100.00;62182.44;6317927;20;3582597;-60
2023/04/28 07:53:51;;;;;;;;;21.67;21.67;;;;;-146.39;100.00;62182.44;6283343;20;3573190;-63
2023/04/28 07:56:21;;;;;;;;;26.00;23.33;;;;;-146.39;100.00;62182.44;6312882;20;3585733;-62
2023/04/28 07:58:52;;;;;;;;;26.63;24.63;;;;;-146.39;100.00;62182.44;6302995;20;3587835;-63
2023/04/28 08:01:23;;;;;;;;;23.00;23.00;;;;;-146.39;100.00;62182.44;6283660;20;3577345;-63
2023/04/28 08:03:55;;;;;;;;;24.67;24.33;;;;;-146.39;100.00;62182.44;6282663;20;3588879;-63
2023/04/28 08:06:27;;;;;;;;;28.33;24.33;;;;;-146.39;100.00;62182.44;6286884;20;3589842;-63
2023/04/28 08:08:55;;;;;;;;;29.67;25.67;;;;;-146.39;100.00;62182.44;6284966;20;3593004;-63
2023/04/28 08:11:23;;;;;;;;;25.67;21.67;;;;;-146.39;100.00;62182.44;6286659;20;3589861;-62
2023/04/28 08:13:51;;;;;;;;;24.50;21.50;;;;;-146.39;100.00;62182.44;6283188;20;2838839;-61
2023/04/28 08:16:21;;;;;;;;;24.33;23.00;;;;;-146.39;100.00;62182.44;6284682;20;3591917;-61
2023/04/28 08:18:49;;;;;;;;;15.67;14.33;;;;;-146.39;100.00;62182.44;6283989;20;3537103;-62
2023/04/28 08:21:17;;;;;;;;;18.00;17.00;;;;;-146.39;100.00;62182.44;6278701;20;2822305;-62
2023/04/28 08:23:46;;;;;;;;;25.50;19.00;;;;;-146.39;100.00;62182.44;6281596;20;2849305;-61
2023/04/28 08:26:14;;;;;;;;;26.67;22.00;;;;;-146.39;100.00;62182.44;6283478;20;3594013;-61
2023/04/28 08:28:43;;;;;;;;;20.00;20.00;;;;;-146.39;100.00;62182.44;6282199;20;2836760;-61
2023/04/28 08:31:11;;;;;;;;;20.00;15.00;;;;;-146.39;100.00;62182.44;6283445;20;2827378;-59
2023/04/28 08:33:38;;;;;;;;;15.00;15.00;;;;;-146.39;100.00;62182.44;6285717;20;2806557;-59
2023/04/28 08:36:07;;;;;;;;;18.67;16.33;;;;;-146.39;100.00;62182.44;6282352;20;3564979;-60
2023/04/28 08:38:35;;;;;;;;;15.67;14.00;;;;;-146.39;100.00;62182.44;6313312;20;3546148;-59
2023/04/28 08:41:04;;;;;;;;;21.50;18.00;;;;;-146.39;100.00;62182.44;6280740;20;2844035;-60
2023/04/28 08:43:39;;;;;;;;;15.00;14.33;;;;;-146.39;100.00;62182.44;6283578;20;3541961;-63
2023/04/28 08:46:07;;;;;;;;;11.50;11.50;;;;;-146.39;100.00;62182.44;6286257;20;2805548;-61
2023/04/28 08:48:42;;;;;;;;;9.50;8.50;;;;;-146.39;100.00;62182.44;6287241;20;2760712;-62
2023/04/28 08:51:15;;;;;;;;;8.50;8.50;;;;;-146.39;100.00;62182.44;6283697;20;2748198;-62
2023/04/28 08:53:52;;;;;;;;;12.00;11.00;;;;;-146.39;100.00;62182.44;6282677;20;3513796;-62
2023/04/28 08:56:26;;;;;;;;;18.00;13.00;;;;;-146.39;100.00;62182.44;6320952;20;2809681;-61
2023/04/28 08:58:55;;;;;;;;;10.67;10.67;;;;;-146.39;100.00;62182.44;6317881;20;3513798;-62
2023/04/28 09:01:23;;;;;;;;;11.67;10.33;;;;;-146.39;100.00;62182.44;6319749;20;3513862;-60
2023/04/28 09:03:53;;;;;;;;;8.60;8.40;;;;;-146.39;100.00;62182.44;6343958;20;2760795;-60
2023/04/28 09:06:22;;;;;;;;;13.00;10.00;;;;;-146.39;100.00;62182.44;6283387;20;3513796;-61
2023/04/28 09:08:49;;;;;;;;;10.00;8.50;;;;;-146.39;100.00;62182.44;6326551;20;2760695;-60
2023/04/28 09:11:18;;;;;;;;;10.33;9.33;;;;;-146.39;100.00;62182.44;6286543;20;2760835;-60
2023/04/28 09:13:46;;;;;;;;;10.00;10.00;;;;;-146.39;100.00;62182.44;6315878;20;2789006;-61
2023/04/28 09:16:14;;;;;;;;;14.00;10.00;;;;;-146.39;100.00;62182.44;6317702;20;2789969;-60
2023/04/28 09:18:56;;;;;;;;;10.00;9.00;;;;;-146.39;100.00;62182.44;6323007;20;2775446;-60
2023/04/28 09:21:23;;;;;;;;;11.00;9.50;;;;;-146.39;100.00;62182.44;6294048;20;2783645;-60
2023/04/28 09:23:50;;;;;;;;;6.00;6.00;;;;;-146.39;100.00;62182.44;6288265;20;2742038;-60
2023/04/28 09:26:19;;;;;;;;;11.67;10.33;;;;;-146.39;100.00;62182.44;6287337;20;3503395;-62
2023/04/28 09:28:46;;;;;;;;;12.00;8.50;;;;;-146.39;100.00;62182.44;6324798;20;2767101;-61
2023/04/28 09:31:24;;;;;;;;;8.40;7.60;;;;;-146.39;100.00;62182.44;6309599;20;2751390;-61
2023/04/28 09:34:02;;;;;;;;;11.67;9.00;;;;;-146.39;100.00;62182.44;6315569;20;2769049;-61
2023/04/28 09:36:30;;;;;;;;;12.67;12.00;;;;;-146.39;100.00;62182.44;6316183;20;3513854;-61
2023/04/28 09:38:58;;;;;;;;;13.00;13.00;;;;;-146.39;100.00;62182.44;6320983;20;2792054;-62
2023/04/28 09:41:41;;;;;;;;;11.00;7.00;;;;;-146.39;100.00;62182.44;6288532;20;2763858;-61
2023/04/28 09:44:15;;;;;;;;;11.20;9.20;;;;;-146.39;100.00;62182.44;6312886;20;2773589;-60
2023/04/28 09:46:45;;;;;;;;;12.00;12.00;;;;;-146.39;100.00;62182.44;6286183;20;2791976;-60
2023/04/28 09:49:14;;;;;;;;;12.00;11.00;;;;;-146.39;100.00;62182.44;6321521;20;2785703;-62
2023/04/28 09:51:41;;;;;;;;;6.50;6.50;;;;;-146.39;100.00;62182.44;6292352;20;2735709;-60
2023/04/28 09:54:10;;;;;;;;;17.33;13.67;;;;;-146.39;100.00;62182.44;6285435;20;3542967;-61
2023/04/28 09:56:41;;;;;;;;;17.00;17.00;;;;;-146.39;100.00;62182.44;6282062;20;2829525;-61
2023/04/28 09:59:10;;;;;;;;;10.33;10.33;;;;;-146.39;100.00;62182.44;6285861;20;3513191;-60
2023/04/28 10:01:40;;;;;;;;;10.00;9.00;;;;;-146.39;100.00;62182.44;6315898;20;2769066;-60
2023/04/28 10:04:10;;;;;;;;;10.00;9.00;;;;;-146.39;100.00;62182.44;6291068;20;2773687;-60
2023/04/28 10:06:39;;;;;;;;;11.33;10.33;;;;;-146.39;100.00;62182.44;6287254;20;3520234;-60
2023/04/28 10:09:07;;;;;;;;;13.00;10.50;;;;;-146.39;100.00;62182.44;6321859;20;2789274;-60
2023/04/28 10:11:38;;;;;;;;;9.80;9.20;;;;;-146.39;100.00;62182.44;6309821;20;2771179;-60
2023/04/28 10:14:07;;;;;;;;;9.80;8.00;;;;;-146.39;100.00;62182.44;6313204;20;2773373;-60
2023/04/28 10:16:36;;;;;;;;;11.20;10.00;;;;;-146.39;100.00;62182.44;6308965;20;2797223;-60
2023/04/28 10:19:04;;;;;;;;;10.00;8.33;;;;;-146.39;100.00;62182.44;6285395;20;2761840;-60
2023/04/28 10:21:44;;;;;;;;;11.67;10.67;;;;;-146.39;100.00;62182.44;6312847;20;3517966;-62
2023/04/28 10:24:24;;;;;;;;;10.00;10.00;;;;;-146.39;100.00;62182.44;6317951;20;2776763;-60
2023/04/28 10:27:08;;;;;;;;;9.00;9.00;;;;;-146.39;100.00;62182.44;6282706;20;2746187;-61
2023/04/28 10:29:36;;;;;;;;;10.00;10.00;;;;;-146.39;100.00;62182.44;6318025;20;2777381;-61
2023/04/28 10:32:21;;;;;;;;;17.33;15.67;;;;;-146.39;100.00;62182.44;6282850;20;3565908;-60
2023/04/28 10:34:51;;;;;;;;;56.67;45.67;;;;;-146.39;100.00;62182.44;6317839;20;3609637;-62
2023/04/28 10:37:18;;;;;;;;;11.00;9.50;;;;;-146.39;100.00;62182.44;6286425;20;2787957;-62
2023/04/28 10:40:33;;;;;;;;;13.33;11.67;;;;;-146.39;100.00;62182.44;6282720;20;2801704;-61
2023/04/28 10:43:02;;;;;;;;;7.00;6.00;;;;;-146.39;100.00;62182.44;6319121;20;2734665;-63
2023/04/28 10:45:59;;;;;;;;;12.00;10.00;;;;;-146.39;100.00;62182.44;6281734;20;3515925;-62
2023/04/28 10:48:36;;;;;;;;;12.00;11.00;;;;;-146.39;100.00;62182.44;6317900;20;2799450;-63
2023/04/28 10:51:08;;;;;;;;;14.67;11.00;;;;;-146.39;100.00;62182.44;6315624;20;2788901;-62